createdAt,value
2019-03-19T09:19:35.629Z,72.92
2019-03-19T09:20:37.336Z,72.61
2019-03-19T09:21:37.329Z,73.85
2019-03-19T09:22:37.366Z,73.47
2019-03-19T09:23:37.337Z,71.24
2019-03-19T09:24:37.338Z,74.43
2019-03-19T09:25:37.338Z,69.70
2019-03-19T09:26:37.339Z,70.96
2019-03-19T09:27:37.345Z,69.55
2019-03-19T09:28:37.336Z,71.30
2019-03-19T09:29:37.335Z,73.85
2019-03-19T09:30:37.327Z,73.64
2019-03-19T09:31:37.339Z,74.22
2019-03-19T09:32:37.346Z,75.12
2019-03-19T09:33:37.348Z,71.72
2019-03-19T09:34:37.334Z,70.66
2019-03-19T09:35:37.339Z,69.84
2019-03-19T09:36:37.337Z,64.28
2019-03-19T09:37:35.424Z,67.57
2019-03-19T09:39:06.783Z,67.09
2019-03-19T09:40:08.543Z,70.66
2019-03-19T09:41:08.534Z,65.11
2019-03-19T09:42:08.546Z,64.76
2019-03-19T09:43:08.561Z,62.60
2019-03-19T09:44:08.547Z,64.15
2019-03-19T09:45:08.556Z,64.04
2019-03-19T09:46:08.552Z,64.22
2019-03-19T09:47:08.551Z,68.23
2019-03-19T09:48:08.581Z,66.04
2019-03-19T09:49:08.545Z,64.09
2019-03-19T09:50:08.531Z,63.68
2019-03-19T09:51:08.554Z,61.55
2019-03-19T09:52:08.544Z,61.96
2019-03-19T09:53:08.545Z,69.74
2019-03-19T09:54:08.543Z,64.50
2019-03-19T09:55:08.555Z,58.23
2019-03-19T09:56:08.553Z,58.95
2019-03-19T09:57:08.543Z,60.19
2019-03-19T09:58:08.543Z,61.72
2019-03-19T09:59:07.545Z,63.03
2019-03-19T10:00:08.056Z,63.62
2019-03-19T10:01:08.097Z,64.61
2019-03-19T10:02:08.044Z,60.00
2019-03-19T10:03:08.045Z,62.23
2019-03-19T10:04:08.041Z,61.48
2019-03-19T10:05:07.043Z,62.74
2019-03-19T10:06:13.835Z,59.25
2019-03-19T10:07:09.044Z,63.15
2019-03-19T10:08:08.043Z,59.05
2019-03-19T10:09:08.043Z,60.79
2019-03-19T10:10:08.053Z,61.92
2019-03-19T10:11:08.102Z,62.63
2019-03-19T10:12:08.041Z,59.69
2019-03-19T10:13:08.032Z,60.61
2019-03-19T10:14:08.043Z,60.16
2019-03-19T10:15:08.045Z,64.78
2019-03-19T10:16:07.681Z,63.85
2019-03-19T10:17:08.053Z,60.85
2019-03-19T10:18:08.043Z,59.72
2019-03-19T10:19:08.043Z,59.11
2019-03-19T10:20:08.044Z,61.60
2019-03-19T10:21:08.042Z,57.21
2019-03-19T10:22:08.048Z,59.08
2019-03-19T10:23:08.041Z,63.43
2019-03-19T10:24:08.041Z,60.35
2019-03-19T10:25:08.031Z,59.03
2019-03-19T10:26:08.054Z,58.83
2019-03-19T10:27:08.066Z,60.71
2019-03-19T10:28:09.071Z,59.27
2019-03-19T10:29:08.043Z,59.50
2019-03-19T10:30:08.041Z,61.46
2019-03-19T10:31:08.033Z,61.07
2019-03-19T10:32:08.048Z,60.46
2019-03-19T10:33:08.040Z,63.65
2019-03-19T10:34:08.042Z,61.77
2019-03-19T10:35:08.042Z,62.77
2019-03-19T10:36:08.035Z,61.71
2019-03-19T10:37:08.040Z,63.35
2019-03-19T10:38:08.050Z,62.60
2019-03-19T10:39:09.184Z,61.04
2019-03-19T10:40:08.053Z,57.82
2019-03-19T10:41:08.045Z,56.79
2019-03-19T10:42:08.039Z,60.91
2019-03-19T10:43:07.040Z,59.23
2019-03-19T10:44:08.047Z,59.41
2019-03-19T10:45:07.549Z,64.31
2019-03-19T10:46:07.541Z,59.31
2019-03-19T10:47:07.541Z,58.62
2019-03-19T10:48:07.552Z,58.62
2019-03-19T10:49:07.541Z,59.26
2019-03-19T10:50:07.539Z,59.50
2019-03-19T10:51:07.545Z,57.13
2019-03-19T10:52:07.541Z,59.42
2019-03-19T10:53:07.541Z,58.91
2019-03-19T10:54:05.950Z,59.22
2019-03-19T10:55:07.528Z,61.14
2019-03-19T10:56:07.555Z,60.83
2019-03-19T10:57:07.538Z,59.47
2019-03-19T10:58:11.278Z,59.36
2019-03-19T10:59:07.543Z,58.31
2019-03-19T11:00:07.540Z,57.08
2019-03-19T11:01:07.545Z,59.03
2019-03-19T11:02:07.547Z,63.42
2019-03-19T11:03:07.545Z,58.80
2019-03-19T11:04:07.528Z,56.54
2019-03-19T11:05:05.830Z,58.15
2019-03-19T11:06:07.543Z,58.33
2019-03-19T11:07:07.540Z,58.12
2019-03-19T11:08:07.572Z,52.77
2019-03-19T11:09:07.580Z,53.59
2019-03-19T11:10:07.540Z,55.92
2019-03-19T11:11:07.540Z,54.05
2019-03-19T11:12:07.540Z,51.08
2019-03-19T11:13:07.540Z,56.18
2019-03-19T11:14:07.546Z,58.09
2019-03-19T11:15:07.552Z,56.76
2019-03-19T11:16:05.712Z,54.80
2019-03-19T11:17:07.538Z,56.23
2019-03-19T11:18:07.540Z,56.40
2019-03-19T11:19:07.540Z,58.62
2019-03-19T11:20:07.552Z,51.07
2019-03-19T11:21:07.542Z,53.85
2019-03-19T11:22:07.538Z,53.47
2019-03-19T11:23:07.542Z,53.90
2019-03-19T11:24:07.542Z,53.28
2019-03-19T11:25:07.540Z,55.56
2019-03-19T11:26:07.547Z,55.58
2019-03-19T11:27:07.538Z,58.02
2019-03-19T11:28:07.528Z,55.28
2019-03-19T11:29:07.537Z,57.66
2019-03-19T11:30:07.567Z,57.25
2019-03-19T11:31:07.541Z,58.23
2019-03-19T11:32:06.541Z,57.59
2019-03-19T11:33:07.040Z,58.74
2019-03-19T11:34:07.039Z,62.12
2019-03-19T11:35:07.049Z,60.00
2019-03-19T11:36:07.028Z,60.13
2019-03-19T11:37:07.048Z,58.62
2019-03-19T11:38:07.051Z,59.44
2019-03-19T11:39:07.040Z,62.45
2019-03-19T11:40:07.038Z,62.04
2019-03-19T11:41:07.445Z,62.96
2019-03-19T11:42:07.041Z,61.80
2019-03-19T11:43:05.443Z,61.90
2019-03-19T11:44:07.040Z,59.85
2019-03-19T11:45:07.042Z,58.83
2019-03-19T11:46:07.038Z,58.59
2019-03-19T11:47:07.027Z,59.36
2019-03-19T11:48:07.057Z,61.20
2019-03-19T11:49:07.095Z,62.19
2019-03-19T11:50:07.105Z,59.05
2019-03-19T11:51:07.041Z,57.82
2019-03-19T11:52:07.039Z,54.97
2019-03-19T11:53:07.041Z,58.84
2019-03-19T11:54:05.326Z,56.49
2019-03-19T11:55:07.027Z,59.64
2019-03-19T11:56:07.040Z,59.12
2019-03-19T11:57:07.042Z,59.46
2019-03-19T11:58:07.043Z,59.05
2019-03-19T11:59:07.027Z,56.79
2019-03-19T12:00:11.524Z,57.07
2019-03-19T12:01:07.038Z,55.38
2019-03-19T12:02:07.042Z,56.97
2019-03-19T12:03:15.525Z,55.69
2019-03-19T12:04:08.040Z,53.90
2019-03-19T12:05:07.043Z,54.11
2019-03-19T12:06:07.046Z,51.91
2019-03-19T12:07:07.037Z,55.35
2019-03-19T12:08:07.027Z,52.50
2019-03-19T12:09:07.037Z,53.55
2019-03-19T12:10:05.133Z,53.64
2019-03-19T12:11:07.049Z,55.15
2019-03-19T12:12:07.058Z,50.97
2019-03-19T12:13:07.039Z,51.05
2019-03-19T12:14:07.044Z,54.18
2019-03-19T12:15:07.049Z,56.40
2019-03-19T12:16:07.068Z,48.76
2019-03-19T12:17:07.039Z,51.00
2019-03-19T12:18:06.549Z,54.72
2019-03-19T12:19:06.536Z,51.68
2019-03-19T12:20:06.528Z,51.40
2019-03-19T12:21:05.012Z,54.61
2019-03-19T12:22:06.540Z,53.29
2019-03-19T12:23:06.550Z,53.36
2019-03-19T12:24:06.538Z,55.28
2019-03-19T12:25:06.550Z,51.81
2019-03-19T12:26:06.538Z,53.24
2019-03-19T12:27:06.536Z,52.73
2019-03-19T12:28:06.541Z,50.99
2019-03-19T12:29:06.570Z,52.86
2019-03-19T12:30:06.571Z,54.69
2019-03-19T12:31:06.544Z,52.78
2019-03-19T12:32:06.526Z,52.58
2019-03-19T12:33:06.537Z,52.14
2019-03-19T12:34:06.538Z,49.21
2019-03-19T12:35:06.547Z,54.57
2019-03-19T12:36:06.539Z,48.88
2019-03-19T12:37:06.547Z,52.98
2019-03-19T12:38:06.547Z,52.58
2019-03-19T12:39:06.527Z,51.96
2019-03-19T12:40:06.536Z,52.25
2019-03-19T12:41:06.540Z,56.81
2019-03-19T12:42:06.539Z,54.74
2019-03-19T12:43:06.543Z,50.56
2019-03-19T12:44:06.551Z,49.98
2019-03-19T12:45:06.539Z,52.25
2019-03-19T12:46:06.548Z,53.75
2019-03-19T12:47:06.543Z,53.83
2019-03-19T12:48:04.740Z,49.11
2019-03-19T12:49:06.548Z,52.58
2019-03-19T12:50:06.541Z,50.01
2019-03-19T12:51:06.540Z,50.72
2019-03-19T12:52:06.542Z,54.18
2019-03-19T12:53:06.537Z,53.16
2019-03-19T12:54:06.544Z,51.92
2019-03-19T12:55:06.545Z,50.82
2019-03-19T12:56:06.570Z,50.82
2019-03-19T12:57:06.560Z,51.23
2019-03-19T12:58:06.565Z,50.56
2019-03-19T12:59:06.527Z,52.83
2019-03-19T13:00:06.540Z,52.06
2019-03-19T13:01:06.607Z,56.86
2019-03-19T13:02:06.536Z,56.27
2019-03-19T13:03:06.527Z,56.86
2019-03-19T13:04:06.044Z,53.77
2019-03-19T13:05:06.036Z,53.98
2019-03-19T13:06:06.040Z,54.69
2019-03-19T13:07:06.047Z,54.67
2019-03-19T13:08:06.038Z,57.80
2019-03-19T13:09:06.059Z,56.65
2019-03-19T13:10:06.068Z,56.02
2019-03-19T13:11:06.076Z,53.11
2019-03-19T13:12:06.037Z,52.81
2019-03-19T13:13:06.041Z,52.83
2019-03-19T13:14:06.056Z,54.18
2019-03-19T13:15:04.447Z,51.76
2019-03-19T13:16:06.035Z,54.82
2019-03-19T13:17:06.041Z,53.42
2019-03-19T13:18:06.039Z,53.83
2019-03-19T13:19:06.202Z,55.26
2019-03-19T13:20:06.051Z,54.33
2019-03-19T13:21:06.051Z,56.27
2019-03-19T13:22:06.037Z,56.76
2019-03-19T13:23:06.036Z,55.23
2019-03-19T13:24:06.039Z,55.20
2019-03-19T13:25:06.035Z,52.42
2019-03-19T13:26:04.327Z,53.92
2019-03-19T13:27:06.051Z,55.43
2019-03-19T13:28:06.042Z,53.24
2019-03-19T13:29:06.049Z,48.84
2019-03-19T13:30:06.037Z,50.90
2019-03-19T13:31:06.031Z,49.40
2019-03-19T13:32:06.058Z,52.12
2019-03-19T13:33:06.041Z,50.11
2019-03-19T13:34:06.045Z,50.87
2019-03-19T13:35:06.026Z,48.93
2019-03-19T13:36:06.055Z,50.79
2019-03-19T13:37:06.052Z,51.02
2019-03-19T13:38:06.063Z,52.27
2019-03-19T13:39:06.057Z,50.66
2019-03-19T13:40:06.047Z,52.70
2019-03-19T13:41:06.038Z,52.52
2019-03-19T13:42:06.036Z,55.49
2019-03-19T13:43:06.030Z,53.54
2019-03-19T13:44:06.044Z,55.76
2019-03-19T13:45:06.036Z,54.44
2019-03-19T13:46:06.040Z,51.89
2019-03-19T13:47:06.040Z,53.92
2019-03-19T13:48:06.036Z,56.96
2019-03-19T13:49:06.051Z,57.98
2019-03-19T13:50:06.051Z,55.74
2019-03-19T13:51:05.603Z,55.63
2019-03-19T13:52:05.538Z,54.41
2019-03-19T13:53:04.542Z,54.33
2019-03-19T13:54:05.537Z,55.15
2019-03-19T13:55:05.528Z,57.09
2019-03-19T13:56:05.548Z,51.76
2019-03-19T13:57:05.537Z,55.94
2019-03-19T13:58:05.541Z,54.21
2019-03-19T13:59:05.545Z,50.94
2019-03-19T14:00:05.550Z,53.01
2019-03-19T14:01:05.539Z,51.17
2019-03-19T14:02:05.537Z,52.11
2019-03-19T14:03:05.526Z,52.83
2019-03-19T14:04:03.902Z,53.13
2019-03-19T14:05:05.539Z,51.83
2019-03-19T14:06:05.546Z,52.85
2019-03-19T14:07:05.537Z,53.90
2019-03-19T14:08:05.539Z,55.71
2019-03-19T14:09:05.539Z,53.67
2019-03-19T14:10:05.540Z,55.18
2019-03-19T14:11:05.553Z,53.54
2019-03-19T14:12:05.539Z,55.69
2019-03-19T14:13:05.548Z,52.09
2019-03-19T14:14:05.538Z,51.78
2019-03-19T14:15:05.528Z,52.09
2019-03-19T14:16:05.526Z,54.95
2019-03-19T14:17:06.658Z,52.91
2019-03-19T14:18:05.573Z,52.27
2019-03-19T14:19:05.541Z,53.42
2019-03-19T14:20:03.721Z,55.02
2019-03-19T14:21:05.545Z,55.23
2019-03-19T14:22:05.539Z,53.06
2019-03-19T14:23:05.541Z,55.61
2019-03-19T14:24:05.550Z,54.49
2019-03-19T14:25:05.539Z,51.93
2019-03-19T14:26:05.536Z,51.84
2019-03-19T14:27:05.539Z,51.96
2019-03-19T14:28:05.537Z,50.23
2019-03-19T14:29:05.547Z,51.96
2019-03-19T14:30:05.555Z,50.76
2019-03-19T14:31:08.882Z,50.84
2019-03-19T14:32:05.539Z,50.66
2019-03-19T14:33:05.539Z,51.98
2019-03-19T14:34:05.556Z,49.15
2019-03-19T14:35:05.539Z,50.58
2019-03-19T14:36:05.549Z,50.99
2019-03-19T14:37:04.540Z,52.62
2019-03-19T14:38:05.037Z,52.80
2019-03-19T14:39:05.037Z,51.07
2019-03-19T14:40:05.044Z,53.11
2019-03-19T14:41:05.036Z,48.92
2019-03-19T14:42:05.049Z,50.84
2019-03-19T14:43:05.049Z,55.43
2019-03-19T14:44:05.053Z,50.84
2019-03-19T14:45:05.041Z,55.74
2019-03-19T14:46:05.056Z,50.38
2019-03-19T14:47:04.043Z,47.46
2019-03-19T14:48:06.249Z,47.24
2019-03-19T14:49:05.039Z,46.53
2019-03-19T14:50:05.040Z,44.73
2019-03-19T14:51:05.041Z,47.69
2019-03-19T14:52:05.043Z,44.22
2019-03-19T14:53:05.036Z,46.35
2019-03-19T14:54:05.041Z,45.66
2019-03-19T14:55:05.042Z,46.01
2019-03-19T14:56:05.043Z,46.94
2019-03-19T14:57:05.058Z,45.97
2019-03-19T14:58:03.312Z,47.42
2019-03-19T14:59:05.064Z,46.83
2019-03-19T15:00:05.037Z,48.86
2019-03-19T15:01:05.039Z,47.77
2019-03-19T15:02:05.041Z,48.81
2019-03-19T15:03:05.057Z,47.28
2019-03-19T15:04:05.051Z,47.71
2019-03-19T15:05:05.042Z,47.50
2019-03-19T15:06:05.039Z,49.57
2019-03-19T15:07:05.029Z,48.75
2019-03-19T15:08:05.039Z,49.29
2019-03-19T15:09:05.039Z,51.35
2019-03-19T15:10:05.045Z,52.88
2019-03-19T15:11:06.029Z,51.17
2019-03-19T15:12:05.045Z,50.35
2019-03-19T15:13:05.038Z,48.94
2019-03-19T15:14:05.089Z,52.95
2019-03-19T15:15:05.048Z,50.81
2019-03-19T15:16:05.056Z,52.44
2019-03-19T15:17:05.434Z,54.97
2019-03-19T15:18:05.039Z,52.34
2019-03-19T15:19:05.027Z,53.69
2019-03-19T15:20:05.028Z,53.49
2019-03-19T15:21:05.038Z,53.90
2019-03-19T15:22:05.048Z,54.31
2019-03-19T15:23:05.040Z,56.56
2019-03-19T15:24:04.543Z,54.85
2019-03-19T15:25:03.042Z,55.58
2019-03-19T15:26:04.541Z,54.74
2019-03-19T15:27:04.538Z,49.37
2019-03-19T15:28:04.551Z,48.86
2019-03-19T15:29:04.539Z,48.71
2019-03-19T15:30:04.538Z,51.05
2019-03-19T15:31:04.526Z,51.17
2019-03-19T15:32:04.553Z,48.35
2019-03-19T15:33:04.538Z,46.94
2019-03-19T15:34:04.548Z,44.38
2019-03-19T15:35:04.541Z,45.15
2019-03-19T15:36:02.925Z,45.84
2019-03-19T15:37:04.539Z,44.48
2019-03-19T15:38:04.537Z,45.78
2019-03-19T15:39:04.555Z,41.30
2019-03-19T15:40:04.587Z,44.12
2019-03-19T15:41:04.549Z,40.17
2019-03-19T15:42:04.537Z,41.50
2019-03-19T15:43:04.529Z,42.84
2019-03-19T15:44:04.543Z,43.38
2019-03-19T15:45:04.537Z,44.79
2019-03-19T15:46:04.539Z,45.95
2019-03-19T15:47:04.539Z,44.26
2019-03-19T15:48:04.541Z,47.05
2019-03-19T15:49:04.540Z,47.38
2019-03-19T15:50:04.548Z,47.91
2019-03-19T15:51:04.552Z,49.87
2019-03-19T15:52:04.527Z,50.20
2019-03-19T15:53:04.542Z,49.10
2019-03-19T15:54:04.539Z,50.96
2019-03-19T15:55:04.540Z,49.15
2019-03-19T15:56:04.543Z,49.96
2019-03-19T15:57:04.537Z,49.15
2019-03-19T15:58:04.540Z,51.93
2019-03-19T15:59:04.539Z,55.21
2019-03-19T16:00:04.541Z,54.80
2019-03-19T16:01:04.539Z,56.15
2019-03-19T16:02:04.548Z,53.90
2019-03-19T16:03:02.610Z,51.14
2019-03-19T16:04:32.993Z,51.54
2019-03-19T16:05:34.712Z,52.26
2019-03-19T16:06:34.712Z,53.16
2019-03-19T16:07:34.717Z,52.19
2019-03-19T16:08:32.942Z,52.91
2019-03-19T16:09:34.714Z,50.45
2019-03-19T16:10:34.742Z,50.27
2019-03-19T16:11:34.756Z,52.47
2019-03-19T16:12:34.722Z,52.93
2019-03-19T16:13:34.710Z,50.26
2019-03-19T16:14:34.712Z,48.44
2019-03-19T16:15:34.716Z,48.65
2019-03-19T16:16:34.712Z,51.04
2019-03-19T16:17:34.711Z,51.04
2019-03-19T16:18:34.718Z,49.33
2019-03-19T16:19:34.721Z,50.86
2019-03-19T16:20:34.701Z,52.42
2019-03-19T16:21:34.711Z,53.77
2019-03-19T16:22:34.712Z,55.71
2019-03-19T16:23:34.723Z,54.18
2019-03-19T16:24:34.712Z,54.61
2019-03-19T16:25:34.711Z,53.62
2019-03-19T16:26:34.710Z,53.54
2019-03-19T16:27:34.711Z,54.36
2019-03-19T16:28:34.729Z,54.49
2019-03-19T16:29:33.715Z,57.25
2019-03-19T16:30:34.211Z,56.95
2019-03-19T16:31:34.217Z,58.20
2019-03-19T16:32:34.211Z,54.10
2019-03-19T16:33:34.210Z,57.28
2019-03-19T16:34:34.213Z,59.36
2019-03-19T16:35:34.214Z,56.79
2019-03-19T16:36:34.223Z,58.23
2019-03-19T16:37:34.216Z,60.28
2019-03-19T16:38:34.201Z,58.64
2019-03-19T16:39:35.298Z,56.71
2019-03-19T16:40:34.211Z,59.38
2019-03-19T16:41:34.211Z,58.97
2019-03-19T16:42:34.223Z,59.48
2019-03-19T16:43:34.212Z,59.31
2019-03-19T16:44:34.210Z,61.16
2019-03-19T16:45:34.212Z,58.69
2019-03-19T16:46:34.218Z,58.83
2019-03-19T16:47:34.230Z,58.51
2019-03-19T16:48:34.213Z,58.62
2019-03-19T16:49:34.212Z,58.62
2019-03-19T16:50:34.209Z,59.34
2019-03-19T16:51:34.236Z,58.83
2019-03-19T16:52:34.249Z,59.54
2019-03-19T16:53:32.475Z,59.23
2019-03-19T16:54:34.212Z,59.64
2019-03-19T16:55:34.213Z,58.62
2019-03-19T16:56:34.212Z,59.03
2019-03-19T16:57:34.212Z,59.03
2019-03-19T16:58:34.202Z,58.83
2019-03-19T16:59:34.218Z,59.44
2019-03-19T17:00:34.212Z,58.51
2019-03-19T17:01:34.213Z,59.23
2019-03-19T17:02:34.210Z,60.77
2019-03-19T17:03:34.210Z,59.54
2019-03-19T17:04:34.229Z,58.62
2019-03-19T17:05:34.216Z,60.49
2019-03-19T17:06:34.212Z,60.47
2019-03-19T17:07:34.211Z,59.98
2019-03-19T17:08:34.213Z,59.77
2019-03-19T17:09:34.212Z,59.98
2019-03-19T17:10:34.219Z,59.77
2019-03-19T17:11:34.233Z,61.86
2019-03-19T17:12:34.209Z,62.27
2019-03-19T17:13:34.215Z,62.40
2019-03-19T17:14:34.214Z,65.48
2019-03-19T17:15:34.222Z,64.15
2019-03-19T17:16:33.710Z,65.83
2019-03-19T17:17:33.699Z,66.03
2019-03-19T17:18:33.710Z,66.88
2019-03-19T17:19:33.719Z,69.15
2019-03-19T17:20:33.709Z,68.98
2019-03-19T17:21:32.162Z,68.46
2019-03-19T17:22:33.714Z,69.01
2019-03-19T17:23:33.708Z,68.42
2019-03-19T17:24:33.725Z,71.30
2019-03-19T17:25:33.709Z,71.55
2019-03-19T17:26:33.711Z,71.13
2019-03-19T17:27:33.728Z,71.75
2019-03-19T17:28:33.710Z,73.12
2019-03-19T17:29:33.720Z,72.64
2019-03-19T17:30:33.757Z,73.74
2019-03-19T17:31:33.722Z,72.95
2019-03-19T17:32:33.758Z,73.39
2019-03-19T17:33:33.708Z,74.33
2019-03-19T17:34:33.708Z,74.22
2019-03-19T17:35:33.717Z,75.39
2019-03-19T17:36:33.707Z,75.60
2019-03-19T17:37:33.697Z,75.91
2019-03-19T17:38:31.984Z,75.22
2019-03-19T17:39:33.719Z,75.36
2019-03-19T17:40:41.363Z,78.42
2019-03-19T17:41:34.709Z,76.98
2019-03-19T17:42:33.696Z,76.29
2019-03-19T17:43:33.705Z,78.46
2019-03-19T17:44:33.714Z,77.84
2019-03-19T17:45:33.717Z,78.67
2019-03-19T17:46:33.738Z,79.70
2019-03-19T17:47:33.718Z,81.67
2019-03-19T17:48:33.705Z,81.39
2019-03-19T17:49:33.696Z,80.57
2019-03-19T17:50:33.712Z,79.94
2019-03-19T17:51:33.716Z,79.94
2019-03-19T17:52:33.730Z,80.05
2019-03-19T17:53:33.711Z,79.33
2019-03-19T17:54:33.711Z,81.91
2019-03-19T17:55:31.816Z,81.29
2019-03-19T17:56:33.705Z,80.60
2019-03-19T17:57:33.696Z,80.98
2019-03-19T17:58:33.712Z,80.67
2019-03-19T17:59:34.733Z,80.46
2019-03-19T18:00:33.707Z,80.91
2019-03-19T18:01:35.847Z,80.57
2019-03-19T18:02:33.720Z,80.08
2019-03-19T18:03:33.205Z,80.98
2019-03-19T18:04:33.208Z,83.36
2019-03-19T18:05:33.230Z,81.91
2019-03-19T18:06:33.194Z,81.54
2019-03-19T18:07:33.212Z,81.84
2019-03-19T18:08:33.204Z,83.09
2019-03-19T18:09:33.197Z,84.01
2019-03-19T18:10:33.216Z,83.05
2019-03-19T18:11:33.226Z,82.88
2019-03-19T18:12:31.624Z,82.78
2019-03-19T18:13:33.205Z,82.53
2019-03-19T18:14:33.193Z,82.01
2019-03-19T18:15:33.203Z,84.33
2019-03-19T18:16:33.203Z,83.46
2019-03-19T18:17:33.208Z,82.57
2019-03-19T18:18:33.205Z,84.22
2019-03-19T18:19:33.205Z,87.74
2019-03-19T18:20:33.203Z,86.36
2019-03-19T18:21:33.214Z,86.91
2019-03-19T18:22:33.205Z,85.36
2019-03-19T18:23:33.220Z,85.36
2019-03-19T18:24:33.205Z,84.95
2019-03-19T18:25:33.204Z,84.50
2019-03-19T18:26:33.202Z,85.05
2019-03-19T18:27:33.203Z,84.43
2019-03-19T18:28:33.211Z,84.84
2019-03-19T18:29:33.204Z,83.40
2019-03-19T18:30:33.212Z,83.09
2019-03-19T18:31:33.218Z,82.98
2019-03-19T18:32:35.374Z,85.36
2019-03-19T18:33:33.205Z,85.99
2019-03-19T18:34:33.208Z,84.95
2019-03-19T18:35:33.204Z,84.74
2019-03-19T18:36:33.203Z,84.95
2019-03-19T18:37:33.205Z,84.99
2019-03-19T18:38:33.194Z,85.09
2019-03-19T18:39:35.491Z,85.40
2019-03-19T18:40:32.212Z,85.13
2019-03-19T18:41:33.207Z,84.92
2019-03-19T18:42:33.202Z,85.34
2019-03-19T18:43:33.204Z,85.17
2019-03-19T18:44:33.210Z,85.58
2019-03-19T18:45:33.217Z,85.79
2019-03-19T18:46:33.200Z,85.83
2019-03-19T18:47:33.199Z,86.87
2019-03-19T18:48:33.200Z,86.70
2019-03-19T18:49:33.190Z,86.39
2019-03-19T18:50:32.702Z,86.74
2019-03-19T18:51:32.719Z,87.92
2019-03-19T18:52:32.700Z,88.54
2019-03-19T18:53:32.700Z,89.06
2019-03-19T18:54:32.701Z,88.90
2019-03-19T18:55:32.703Z,89.11
2019-03-19T18:56:32.787Z,89.25
2019-03-19T18:57:31.139Z,89.62
2019-03-19T18:58:32.699Z,90.39
2019-03-19T18:59:32.699Z,90.75
2019-03-19T19:00:32.703Z,90.91
2019-03-19T19:01:32.707Z,90.75
2019-03-19T19:02:32.701Z,92.10
2019-03-19T19:03:32.701Z,91.83
2019-03-19T19:04:32.699Z,92.41
2019-03-19T19:05:32.700Z,92.55
2019-03-19T19:06:32.698Z,92.45
2019-03-19T19:07:32.706Z,92.55
2019-03-19T19:08:32.716Z,92.03
2019-03-19T19:09:32.704Z,91.97
2019-03-19T19:10:32.699Z,91.97
2019-03-19T19:11:32.697Z,92.80
2019-03-19T19:12:32.701Z,93.12
2019-03-19T19:13:32.704Z,93.16
2019-03-19T19:14:32.700Z,93.89
2019-03-19T19:15:32.699Z,94.10
2019-03-19T19:16:32.714Z,94.62
2019-03-19T19:17:32.704Z,94.99
2019-03-19T19:18:32.739Z,96.45
2019-03-19T19:19:33.699Z,95.87
2019-03-19T19:20:32.716Z,95.20
2019-03-19T19:21:32.686Z,95.51
2019-03-19T19:22:32.705Z,94.89
2019-03-19T19:23:32.707Z,93.85
2019-03-19T19:24:33.706Z,94.47
2019-03-19T19:25:33.696Z,94.64
2019-03-19T19:26:31.706Z,94.53
2019-03-19T19:27:32.707Z,94.74
2019-03-19T19:28:32.696Z,96.09
2019-03-19T19:29:32.711Z,96.61
2019-03-19T19:30:32.697Z,96.82
2019-03-19T19:31:32.733Z,95.89
2019-03-19T19:32:30.796Z,94.84
2019-03-19T19:33:32.724Z,94.43
2019-03-19T19:34:32.707Z,93.91
2019-03-19T19:35:32.699Z,93.87
2019-03-19T19:36:32.727Z,93.97
2019-03-19T19:37:32.696Z,94.90
2019-03-19T19:38:32.183Z,94.07
2019-03-19T19:39:32.202Z,93.14
2019-03-19T19:40:32.204Z,92.51
2019-03-19T19:41:32.255Z,92.41
2019-03-19T19:42:32.251Z,94.28
2019-03-19T19:43:32.224Z,94.07
2019-03-19T19:44:32.234Z,94.34
2019-03-19T19:45:33.225Z,93.76
2019-03-19T19:46:32.196Z,93.72
2019-03-19T19:47:32.203Z,92.88
2019-03-19T19:48:33.199Z,92.68
2019-03-19T19:49:31.202Z,91.53
2019-03-19T19:50:32.185Z,92.47
2019-03-19T19:51:32.192Z,93.35
2019-03-19T19:52:32.201Z,92.68
2019-03-19T19:53:32.194Z,92.68
2019-03-19T19:54:32.281Z,92.88
2019-03-19T19:55:30.566Z,92.93
2019-03-19T19:56:32.191Z,93.03
2019-03-19T19:57:33.193Z,91.89
2019-03-19T19:58:32.194Z,92.72
2019-03-19T19:59:32.202Z,93.39
2019-03-19T20:00:32.197Z,92.82
2019-03-19T20:01:30.451Z,92.76
2019-03-19T20:02:32.221Z,92.86
2019-03-19T20:03:32.191Z,93.49
2019-03-19T20:04:32.198Z,92.97
2019-03-19T20:05:34.012Z,92.76
2019-03-19T20:06:32.193Z,93.01
2019-03-19T20:07:32.193Z,93.27
2019-03-19T20:08:32.193Z,93.27
2019-03-19T20:09:32.259Z,94.10
2019-03-19T20:10:32.221Z,93.52
2019-03-19T20:11:32.191Z,94.04
2019-03-19T20:12:32.272Z,94.45
2019-03-19T20:13:32.196Z,95.08
2019-03-19T20:14:32.241Z,95.70
2019-03-19T20:15:32.199Z,95.54
2019-03-19T20:16:32.188Z,96.89
2019-03-19T20:17:33.202Z,96.83
2019-03-19T20:18:31.219Z,96.37
2019-03-19T20:19:32.192Z,96.48
2019-03-19T20:20:32.198Z,97.56
2019-03-19T20:21:32.257Z,97.56
2019-03-19T20:22:32.188Z,97.56
2019-03-19T20:23:32.312Z,98.19
2019-03-19T20:24:32.188Z,98.50
2019-03-19T20:25:32.239Z,97.56
2019-03-19T20:26:31.689Z,97.77
2019-03-19T20:27:32.698Z,97.67
2019-03-19T20:28:31.760Z,98.50
2019-03-19T20:29:31.687Z,98.39
2019-03-19T20:30:31.691Z,98.82
2019-03-19T20:31:31.689Z,99.07
2019-03-19T20:32:31.790Z,99.07
2019-03-19T20:33:31.701Z,98.65
2019-03-19T20:34:31.728Z,99.33
2019-03-19T20:35:30.690Z,98.71
2019-03-19T20:36:31.727Z,99.07
2019-03-19T20:37:32.716Z,99.69
2019-03-19T20:38:31.785Z,99.59
2019-03-19T20:39:31.759Z,99.48
2019-03-19T20:40:31.689Z,99.48
2019-03-19T20:41:31.689Z,99.48
2019-03-19T20:42:31.689Z,99.27
2019-03-19T20:43:31.686Z,99.17
2019-03-19T20:44:31.696Z,98.90
2019-03-19T20:45:31.688Z,99.01
2019-03-19T20:46:31.685Z,98.90
2019-03-19T20:47:31.685Z,98.90
2019-03-19T20:48:31.685Z,99.32
2019-03-19T20:49:31.691Z,99.74
2019-03-19T20:50:31.692Z,99.84
2019-03-19T20:51:31.688Z,99.63
2019-03-19T20:52:31.684Z,99.84
2019-03-19T20:53:31.673Z,99.89
2019-03-19T20:54:31.686Z,99.68
2019-03-19T20:55:31.702Z,99.99
2019-03-19T20:56:31.686Z,99.99
2019-03-19T20:57:31.695Z,99.99
2019-03-19T20:58:42.910Z,99.99
2019-03-19T20:59:32.699Z,99.99
2019-03-19T21:00:31.686Z,99.99
2019-03-19T21:01:31.685Z,99.99
2019-03-19T21:02:31.683Z,99.99
2019-03-19T21:03:36.019Z,99.99
2019-03-19T21:04:31.712Z,99.99
2019-03-19T21:05:31.690Z,99.99
2019-03-19T21:06:31.686Z,99.99
2019-03-19T21:07:31.687Z,99.99
2019-03-19T21:08:31.690Z,99.99
2019-03-19T21:09:31.686Z,99.99
2019-03-19T21:10:31.684Z,99.99
2019-03-19T21:11:31.691Z,99.99
2019-03-19T21:12:31.682Z,99.99
2019-03-19T21:13:31.187Z,99.99
2019-03-19T21:14:31.183Z,99.99
2019-03-19T21:15:31.183Z,99.99
2019-03-19T21:16:31.182Z,99.99
2019-03-19T21:17:31.208Z,99.99
2019-03-19T21:18:31.183Z,99.99
2019-03-19T21:19:31.191Z,99.99
2019-03-19T21:20:31.183Z,99.99
2019-03-19T21:21:29.600Z,99.99
2019-03-19T21:22:31.185Z,99.99
2019-03-19T21:23:31.195Z,99.99
2019-03-19T21:24:31.189Z,99.99
2019-03-19T21:25:31.184Z,99.99
2019-03-19T21:26:31.182Z,99.99
2019-03-19T21:27:31.181Z,99.99
2019-03-19T21:28:31.184Z,99.99
2019-03-19T21:29:31.181Z,99.99
2019-03-19T21:30:31.186Z,99.99
2019-03-19T21:31:31.179Z,99.99
2019-03-19T21:32:31.266Z,99.99
2019-03-19T21:33:31.181Z,99.99
2019-03-19T21:34:31.169Z,99.89
2019-03-19T21:35:31.179Z,99.99
2019-03-19T21:36:31.217Z,99.99
2019-03-19T21:37:31.180Z,99.95
2019-03-19T21:38:31.180Z,99.84
2019-03-19T21:39:31.182Z,99.32
2019-03-19T21:40:31.179Z,98.90
2019-03-19T21:41:31.182Z,99.07
2019-03-19T21:42:31.184Z,99.17
2019-03-19T21:43:31.182Z,98.86
2019-03-19T21:44:31.178Z,99.11
2019-03-19T21:45:31.176Z,98.90
2019-03-19T21:46:31.193Z,98.38
2019-03-19T21:47:31.182Z,98.90
2019-03-19T21:48:31.176Z,99.11
2019-03-19T21:49:30.176Z,98.86
2019-03-19T21:50:31.179Z,98.96
2019-03-19T21:51:31.178Z,98.02
2019-03-19T21:52:31.191Z,97.46
2019-03-19T21:53:31.177Z,97.92
2019-03-19T21:54:31.176Z,97.09
2019-03-19T21:55:31.190Z,97.09
2019-03-19T21:56:31.176Z,96.98
2019-03-19T21:57:31.164Z,97.19
2019-03-19T21:58:31.179Z,97.88
2019-03-19T21:59:31.186Z,98.19
2019-03-19T22:00:31.178Z,97.35
2019-03-19T22:01:30.677Z,97.62
2019-03-19T22:02:30.664Z,97.83
2019-03-19T22:03:30.705Z,97.62
2019-03-19T22:04:30.679Z,97.27
2019-03-19T22:05:30.676Z,96.59
2019-03-19T22:06:30.663Z,95.87
2019-03-19T22:07:30.673Z,95.09
2019-03-19T22:08:30.673Z,95.05
2019-03-19T22:09:30.681Z,93.97
2019-03-19T22:10:30.679Z,94.28
2019-03-19T22:11:30.675Z,93.14
2019-03-19T22:12:30.674Z,92.57